A- A+ FrançaisEnglishEspañol中国

le plus proche LFBT Tarbes-Lourdes-PyrénéesLFLJ Courchevel LFMD Cannes-Mandelieu LFQC Luneville-Croismare

manche à air

La météo aéronautique pour les pilotes, la préparation du vol avec les METAR (METeorological Aerodrome Report, message d'observation des conditions météorologiques pour l'aviation) et Les TAF (Terminal Aerodrome Forecast : message de prévision à court terme des conditions météorologiques pour l'aviation). Et les autres ressources comme les VAC (Visual Approch Chart) et les NOTAM (Notice To Airman) pour préprer les vols.

Aéroport Trois Rivieres (Canada) / OACI CYRQ/ IATA YRQ

L'altitude de l'aéroport Trois Rivieres est de 61 m=200 ft. Il est situé à proximité de Trois-Rivières (Canada). La météo générale à 5 jours est disponible pour Sainte-Catherine situé à 9.5 km.

METAR de l'aéroport Trois Rivieres - CYRQ

CYRQ 212000Z AUTO 06005KT 9SM SCT110 BKN140 BKN200 M11/M14 A3046 RMK SLP322

Décodage du METAR de l'aéroport Trois Rivieres (CA)

METAR émis par CYRQ le samedi 21 décembre 2019 à 20:00 heure TU. C'est un METAR généré automatiquement. Attention ce METAR est obsolète car il a été émis il y a 13 heure et 13 minutes.

La visibilité est de 14.5 km=9 sm.

La température est de -11°C=12 °F et le point rosée est de -14°C=7 °F . Ce qui correspond à 79% d'humidité relative.

Le QNH est de 1031 hPa=30.45 inHg

Vent de 5 kt=9 km/h, orienté à 60°.

Nuages : Nuages épars à 11000 ft=3350 mètres. Couverture nuageuse fragmentée à 14000 ft=4270 mètres. Couverture nuageuse fragmentée à 20000 ft=6100 mètres.

RMK SLP322

TAF de l'aéroport Trois Rivieres - CYRQ

CYRQ 211940Z 2120/2208 05005KT P6SM OVC160 FM212200 VRB03KT P6SM FEW240 FM220300 VRB03KT P6SM FEW008 TEMPO 2203/2206 4SM BR BKN008 FM220600 VRB03KT 4SM BR OVC004 TEMPO 2206/2208 P6SM NSW SCT004 PROB30 2206/2208 3/4SM BR RMK FCST BASED ON AUTO OBS. NXT FCST BY 220200Z

CYRQ 211940Z 2120/2208 05005KT P6SM couverture nuageuse soudée à 160 FM212200 VRB03KT P6SM quelques nuages à 240 FM220300 VRB03KT P6SM quelques nuages à 008 temporairement 2203/2206 4SM brume couverture nuageuse fragmentée à 008 FM220600 VRB03KT 4SM brume couverture nuageuse soudée à 004 temporairement 2206/2208 P6SM NSW nuages épars à 004 probabilité de 30% d'avoir 2206/2208 3/4SM brume remarques trombe ST BASED ON AUTO OBS. NXT trombe ST BY 220200Z

Aéroport à proximité de Trois Rivieres

Météo générale à 5 jours à Sainte-Catherine (9.5 km)CYHU Aéroport Montreal St Hubert (109 km)CYQB Aéroport Quebec Jean Lesage Intl (110 km)CYLQ Aéroport La Turque (118 km)CZBM Aéroport Bromont (118 km)CYJN Aéroport St Jean (127 km)CYSC Aéroport Sherbrooke (127 km)

Vue aérienne de l'aéroport Trois Rivieres

NOTAM de l'aéroport Trois Rivieres

Les NOTAM sont fournis sans aucune garantie de leur actualité. Le pilote est le seul responsable de la vérification de sa validité avant de l'utiliser opérationnellement pour préparer un vol ou l'utiliser lors de sa navigation.

Pas de NOTAM

Sources des données